This is the latest recevied weather packets stored in our database for station/object S54MI-13. If no packets are shown the sender has not sent any weather packets the latest 10 day(s).
| Time | Temp. | Humidity | Pressure | Rain* | Wind** | Luminosity | Snow |
|---|---|---|---|---|---|---|---|
| 1777936095 | 15.56° C | 49% | - | - | - | 0 W/m² | - |
| 1777933939 | 16.11° C | 49% | - | - | - | 0 W/m² | - |
| 1777932502 | 16.11° C | 49% | - | - | - | 0 W/m² | - |
| 1777924582 | 16.11° C | 52% | - | - | - | 0 W/m² | - |
| 1777922422 | 16.67° C | 52% | - | - | - | 0 W/m² | - |
| 1777918142 | 18.33° C | 48% | - | - | - | 44 W/m² | - |
| 1777915942 | 18.89° C | 43% | - | - | - | 73 W/m² | - |
| 1777911622 | 21.11° C | 31% | - | - | - | 154 W/m² | - |
| 1777908021 | 22.22° C | 31% | - | - | - | 191 W/m² | - |
| 1777901561 | 25.56° C | 29% | - | - | - | 862 W/m² | - |
| 1777898661 | 25.56° C | 31% | - | - | - | 869 W/m² | - |
| 1777897221 | 25° C | 31% | - | - | - | 869 W/m² | - |
| 1777891480 | 24.44° C | 39% | - | - | - | 895 W/m² | - |
| 1777890735 | 24.44° C | 39% | - | - | - | 895 W/m² | - |
| 1777881380 | 22.78° C | 40% | - | - | - | 530 W/m² | - |
| 1777880660 | 22.22° C | 40% | - | - | - | 510 W/m² | - |
| 1777878500 | 19.44° C | 45% | - | - | - | 440 W/m² | - |
| 1777869859 | 13.89° C | 43% | - | - | - | 6 W/m² | - |
| 1777869139 | 13.33° C | 43% | - | - | - | 6 W/m² | - |
| 1777855458 | 13.89° C | 42% | - | - | - | 0 W/m² | - |
| 1777854019 | 13.89° C | 41% | - | - | - | 0 W/m² | - |
| 1777836018 | 16.67° C | 42% | - | - | - | 0 W/m² | - |
| 1777835298 | 16.67° C | 42% | - | - | - | 0 W/m² | - |
| 1777833857 | 16.67° C | 42% | - | - | - | 7 W/m² | - |
| 1777828837 | 20.56° C | 39% | - | - | - | 132 W/m² | - |
* Rain since midnight (hover to see other rain measurements)
** Current wind speed in m/s (hover to see current wind gust speed)